Tiempo atmosférico en la estación meteorológica de Azpeitia, Gipuzkoa (180 m.)

Fecha
DESCASC
Temp. máxima en grados centígrados (hora)
DESCASC
Temp. mínima en grados centígrados (hora)
DESCASC
Temp. media en grados centígrados
DESCASC
Racha de viento máxima en m/sg (hora)
DESCASC
Velocidad máxima media en intervalos de 10 minutos(hora)
DESCASC
Precipitaciones diarias en mm
DESCASC
Precipitaciones de 00:00 a 06:00 en mm
DESCASC
Precipitaciones de 06:00 a 12:00 en mm
DESCASC
Precipitaciones de 12:00 a 18:00 en mm
DESCASC
Precipitaciones de 18:00 a 24:00 en mm
DESCASC
17-08-2017 27.1 (14:50) 13.4 (07:50) 20.3 6.94 (16:20) 2.22 (16:20) 0 0 0 0 0
16-08-2017 25.6 (16:20) 17.2 (23:59) 21.4 5.28 (17:10) 1.94 (17:10) 0.2 0.2 0 0 0
15-08-2017 23.1 (13:40) 18.7 (00:00) 20.9 5.28 (14:40) 1.94 (06:30) 0 0 0 0 0
14-08-2017 36.1 (18:30) 14.2 (08:00) 25.1 7.22 (14:40) 2.5 (11:20) 0 0 0 0 0
13-08-2017 24.2 (12:50) 15.4 (00:00) 19.8 5.28 (15:00) 1.94 (17:20) 0 0 0 0 0
12-08-2017 23.7 (13:50) 9.7 (00:00) 16.7 6.11 (16:50) 1.94 (21:20) 0 0 0 0 0
11-08-2017 22 (15:30) 11 (00:00) 16.5 6.67 (15:20) 2.5 (16:50) 0 0 0 0 0
10-08-2017 18.3 (19:30) 12.6 (00:00) 15.4 8.06 (14:30) 2.78 (14:30) 8.6 2.2 6 0.4 0
09-08-2017 19.8 (17:30) 13.7 (00:00) 16.7 7.78 (16:50) 3.06 (19:20) 7.4 0 3.6 2.4 1.4
08-08-2017 20.3 (17:50) 14.3 (00:00) 17.3 7.22 (13:20) 3.33 (01:30) 2 1 0 1 0
07-08-2017 25.1 (13:20) 15.3 (00:00) 20.2 6.39 (15:00) 3.06 (22:40) 1.4 0 0 0 1.4
06-08-2017 23.4 (15:50) 16.5 (00:00) 19.9 5 (15:30) 1.94 (15:30) 0.2 0.2 0 0 0
05-08-2017 21.4 (00:00) 16.5 (00:00) 18.9 6.39 (11:50) 2.22 (15:50) 4.8 0 3.4 1 0.4
04-08-2017 30.5 (14:00) 18.6 (00:00) 24.6 6.11 (17:00) 2.22 (17:40) 0 0 0 0 0
03-08-2017 28.1 (13:50) 19.6 (00:00) 23.9 6.39 (16:10) 2.22 (20:20) 0 0 0 0 0
02-08-2017 26.9 (15:10) 15.8 (00:00) 21.3 5.83 (17:40) 2.5 (17:00) 0 0 0 0 0
01-08-2017 22.9 (14:30) 17.1 (00:00) 20 5 (16:00) 1.39 (23:30) 1.8 0 1.8 0 0
31-07-2017 21.2 (16:10) 17.2 (00:00) 19.2 3.61 (18:30) 1.67 (03:50) 0.2 0.2 0 0 0
30-07-2017 23.9 (13:10) 15.7 (00:00) 19.8 6.11 (18:10) 2.22 (18:40) 0 0 0 0 0
29-07-2017 28.5 (14:10) 16.6 (00:00) 22.6 5.56 (15:50) 1.94 (15:40) 0 0 0 0 0
28-07-2017 24.5 (17:50) 18.5 (00:00) 21.5 5.83 (17:40) 2.22 (17:40) 0 0 0 0 0
27-07-2017 28.5 (13:50) 13.9 (00:00) 21.2 6.39 (18:20) 2.22 (18:20) 0 0 0 0 0
26-07-2017 25.2 (15:30) 13 (00:00) 19.1 5.28 (18:40) 1.67 (16:20) 0 0 0 0 0
25-07-2017 19.2 (19:40) 14.8 (00:00) 17 5.28 (14:00) 2.22 (14:00) 1 0.6 0 0.4 0
24-07-2017 20.7 (14:00) 16.2 (00:00) 18.5 6.39 (13:50) 2.5 (11:30) 7.6 0.6 1.2 3.2 2.6
23-07-2017 23.6 (16:30) 15.6 (00:00) 19.6 5.56 (18:10) 1.94 (17:50) 0 0 0 0 0
22-07-2017 25.2 (13:20) 13.4 (00:00) 19.3 5.28 (15:20) 1.94 (16:10) 0 0 0 0 0

Gráficas

Temp. máximas Temp. mínimas Temp. medias Precipitaciones Rachas de viento máximas Velocidades máximas media en intervalos de 10 minutos

Datos horarios

Fecha y hora oficial Temperatura (ºC) Velocidad del viento (km/h) Dirección del viento Racha (km/h) Dirección de racha Precipitación (mm) Presión (hPa) Tendencia (hPa) Humedad (%)
2017-08-20 23:00:00 16 0 Calma 4 Oeste 0 -- -- 83
2017-08-20 22:00:00 17.7 3 Sudeste 9 Este 0 -- -- 76
2017-08-20 21:00:00 18.8 3 Nordeste 12 Este 0 -- -- 70
2017-08-20 20:00:00 20.4 6 Este 18 Norte 0 -- -- 63
2017-08-20 19:00:00 22.1 6 Este 18 Nordeste 0 -- -- 58
2017-08-20 18:00:00 22.7 6 Este 23 Norte 0 -- -- 57
2017-08-20 17:00:00 23.4 6 Este 17 Noroeste 0 -- -- 55
2017-08-20 16:00:00 23.5 6 Nordeste 17 Norte 0 -- -- 53
2017-08-20 15:00:00 23.5 5 Este 18 Nordeste 0 -- -- 53
2017-08-20 14:00:00 23.6 5 Nordeste 13 Nordeste 0 -- -- 54
2017-08-20 13:00:00 23 4 Nordeste 13 Este 0 -- -- 58
2017-08-20 12:00:00 21.3 3 Nordeste 11 Nordeste 0 -- -- 65
2017-08-20 11:00:00 19.9 6 Norte 12 Norte 0 -- -- 72
2017-08-20 10:00:00 17.6 3 Este 7 Este 0 -- -- 81
2017-08-20 09:00:00 15.7 0 Calma 3 Sudeste 0 -- -- 89
2017-08-20 08:00:00 15.4 0 Calma 6 Sudoeste 0 -- -- 90
2017-08-20 07:00:00 16 2 Oeste 6 Oeste 0 -- -- 88
2017-08-20 06:00:00 16.4 0 Calma 4 Sur 0 -- -- 88
2017-08-20 05:00:00 16.6 0 Calma 4 Sudoeste 0 -- -- 87
2017-08-20 04:00:00 16.7 4 Sudoeste 9 Sudoeste 0 -- -- 83
2017-08-20 03:00:00 16.7 6 Sudoeste 9 Sudoeste 0 -- -- 86
2017-08-20 02:00:00 17.1 0 Calma 6 Sudeste 0 -- -- 83
2017-08-20 01:00:00 17.1 2 Oeste 4 Norte 0 -- -- 84
2017-08-20 00:00:00 17.2 3 Este 7 Sur 0 -- -- 84
2017-08-19 23:00:00 17.6 2 Este 6 Sudeste 0 -- -- 81
2017-08-19 22:00:00 18 2 Este 12 Este 0 -- -- 78
2017-08-19 21:00:00 18.7 5 Este 13 Este 0 -- -- 74
2017-08-19 20:00:00 20.3 3 Este 17 Norte 0 -- -- 68
2017-08-19 19:00:00 22.1 5 Norte 19 Noroeste 0 -- -- 62
2017-08-19 18:00:00 22.6 8 Norte 23 Norte 0 -- -- 62
2017-08-19 17:00:00 23.4 6 Norte 19 Nordeste 0 -- -- 62
2017-08-19 16:00:00 24.1 6 Norte 17 Norte 0 -- -- 61
2017-08-19 15:00:00 24.3 5 Nordeste 19 Nordeste 0 -- -- 61
2017-08-19 14:00:00 24 6 Norte 21 Norte 0 -- -- 64
2017-08-19 13:00:00 24.2 6 Norte 21 Norte 0 -- -- 61
2017-08-19 12:00:00 23.5 4 Nordeste 10 Nordeste 0 -- -- 65
2017-08-19 11:00:00 21.5 4 Norte 9 Este 0 -- -- 69
2017-08-19 10:00:00 18.9 2 Noroeste 6 Norte 0 -- -- 85
2017-08-19 09:00:00 18.1 3 Este 9 Sudoeste 0 -- -- 92
2017-08-19 08:00:00 17.5 2 Oeste 8 Oeste 0 -- -- 96
2017-08-19 07:00:00 17.7 3 Sur 7 Sudoeste 0 -- -- 93
2017-08-19 06:00:00 17.7 3 Este 8 Norte 0 -- -- 95
2017-08-19 05:00:00 17.8 2 Sudeste 7 Oeste 0 -- -- 96
2017-08-19 04:00:00 17.8 6 Oeste 13 Sudoeste 0 -- -- 96
2017-08-19 03:00:00 17.8 0 Calma 9 Sudoeste 0.6 -- -- 96
2017-08-19 02:00:00 17.8 3 Sudoeste 5 Sudoeste 0 -- -- 92
2017-08-19 01:00:00 18.1 3 Sudeste 8 Sudeste 0 -- -- 91
2017-08-19 00:00:00 18.3 4 Sudeste 7 Sudeste 0 -- -- 90
2017-08-18 23:00:00 18.7 0 Calma 6 Sur 0 -- -- 88
2017-08-18 22:00:00 19 2 Sudeste 12 Este 0 -- -- 87
2017-08-18 21:00:00 19.9 3 Sudeste 11 Norte 0 -- -- 81
2017-08-18 20:00:00 21 4 Este 14 Nordeste 0 -- -- 77
2017-08-18 19:00:00 22.4 4 Nordeste 11 Nordeste 0 -- -- 74
2017-08-18 18:00:00 20.8 2 Este 12 Nordeste 0 -- -- 83
2017-08-18 17:00:00 20.2 4 Este 13 Nordeste 0 -- -- 85
2017-08-18 16:00:00 21.2 5 Nordeste 19 Nordeste 0 -- -- 83
2017-08-18 15:00:00 23.1 5 Este 13 Nordeste 0 -- -- 74
2017-08-18 14:00:00 22.7 4 Este 13 Este 0 -- -- 76
2017-08-18 13:00:00 22.4 3 Este 8 Nordeste 0 -- -- 77
2017-08-18 12:00:00 19.9 4 Este 9 Sudeste 0 -- -- 91
2017-08-18 11:00:00 18.9 2 Noroeste 5 Sudeste 0 -- -- 93
2017-08-18 10:00:00 18.3 2 Este 5 Este 0 -- -- 96
2017-08-18 09:00:00 17.4 0 Calma 6 Oeste 0 -- -- 98
2017-08-18 08:00:00 17 2 Este 4 Sudeste 0 -- -- 98
2017-08-18 07:00:00 16.8 3 Sudeste 7 Sudoeste 0 -- -- 98
2017-08-18 06:00:00 16.8 2 Noroeste 5 Oeste 0.2 -- -- 97
2017-08-18 05:00:00 17 0 Calma 5 Sudoeste 0 -- -- 95
2017-08-18 04:00:00 16.8 2 Sudeste 4 Sudeste 0 -- -- 95
2017-08-18 03:00:00 16.6 0 Calma 5 Sudoeste 0 -- -- 94
2017-08-18 02:00:00 17.1 0 Calma 3 Oeste 0 -- -- 92
2017-08-18 01:00:00 17.9 3 Sudeste 5 Oeste 0 -- -- 91
2017-08-18 00:00:00 18.9 0 Calma 8 Nordeste 0 -- -- 88
2017-08-17 23:00:00 19.7 4 Este 13 Norte 0 -- -- 85
2017-08-17 22:00:00 20.5 4 Este 14 Nordeste 0 -- -- 80
2017-08-17 21:00:00 22.2 4 Este 13 Noroeste 0 -- -- 70
2017-08-17 20:00:00 24.4 3 Este 13 Norte 0 -- -- 61
2017-08-17 19:00:00 25.2 4 Este 17 Nordeste 0 -- -- 59
2017-08-17 18:00:00 25.1 6 Este 22 Este 0 -- -- 60
2017-08-17 17:00:00 25.5 6 Nordeste 25 Norte 0 -- -- 59
2017-08-17 16:00:00 25.8 6 Nordeste 21 Norte 0 -- -- 62
2017-08-17 15:00:00 27.1 5 Nordeste 19 Sudeste 0 -- -- 57
2017-08-17 14:00:00 26.8 5 Este 14 Nordeste 0 -- -- 55
2017-08-17 13:00:00 26.4 4 Este 12 Norte 0 -- -- 51
2017-08-17 12:00:00 23.8 3 Norte 8 Nordeste 0 -- -- 57
2017-08-17 11:00:00 20.4 2 Este 6 Nordeste 0 -- -- 76
2017-08-17 10:00:00 16 2 Nordeste 5 Nordeste 0 -- -- 95
2017-08-17 09:00:00 14.2 2 Noroeste 5 Oeste 0 -- -- 100
2017-08-17 08:00:00 13.5 2 Noroeste 4 Noroeste 0 -- -- 99
2017-08-17 07:00:00 13.7 0 Calma 5 Oeste 0 -- -- 98
2017-08-17 06:00:00 14.2 2 Oeste 5 Oeste 0 -- -- 98
2017-08-17 05:00:00 14.7 4 Sudeste 6 Sudeste 0 -- -- 98
2017-08-17 04:00:00 14.9 0 Calma 4 Sudeste 0 -- -- 96
2017-08-17 03:00:00 15.3 0 Calma 5 Oeste 0 -- -- 96
2017-08-17 02:00:00 15.9 3 Sudeste 5 Sudoeste 0 -- -- 95
2017-08-17 01:00:00 16.5 0 Calma 5 Sudoeste 0 -- -- 93
2017-08-17 00:00:00 17.2 3 Sur 4 Sur 0 -- -- 91
2017-08-16 23:00:00 18.4 0 Calma 7 Norte 0 -- -- 87
2017-08-16 22:00:00 19.8 2 Norte 12 Este 0 -- -- 82
2017-08-16 21:00:00 20.9 4 Este 12 Nordeste 0 -- -- 77
2017-08-16 20:00:00 22.2 3 Este 10 Nordeste 0 -- -- 74
2017-08-16 19:00:00 24.1 5 Este 14 Norte 0 -- -- 67
2017-08-16 18:00:00 24 5 Este 19 Norte 0 -- -- 68
2017-08-16 17:00:00 25.2 5 Norte 16 Norte 0 -- -- 65
2017-08-16 16:00:00 25.5 5 Norte 17 Norte 0 -- -- 65
2017-08-16 15:00:00 24.4 4 Nordeste 12 Nordeste 0 -- -- 68
2017-08-16 14:00:00 21.9 3 Norte 10 Este 0 -- -- 76
2017-08-16 13:00:00 20.4 2 Este 10 Noroeste 0 -- -- 85
2017-08-16 12:00:00 20.8 4 Norte 8 Norte 0 -- -- 81
2017-08-16 11:00:00 19.5 0 Calma 5 Noroeste 0 -- -- 90
2017-08-16 10:00:00 18.8 2 Norte 4 Norte 0 -- -- 94
2017-08-16 09:00:00 18 0 Calma 8 Este 0 -- -- 96
2017-08-16 08:00:00 17.8 3 Sudeste 5 Sudeste 0 -- -- 96
2017-08-16 07:00:00 17.9 0 Calma 5 Norte 0 -- -- 97
2017-08-16 06:00:00 18.2 2 Este 4 Este 0.2 -- -- 97
2017-08-16 05:00:00 18.2 0 Calma 0 Calma 0 -- -- 97
2017-08-16 04:00:00 18.2 0 Calma 0 Calma 0 -- -- 96
2017-08-16 03:00:00 18.2 0 Calma 6 Sudeste 0 -- -- 96
2017-08-16 02:00:00 18.4 3 Este 8 Este 0 -- -- 95
2017-08-16 01:00:00 18.6 0 Calma 4 Norte 0 -- -- 93
2017-08-16 00:00:00 18.7 0 Calma 3 Este 0 -- -- 92
2017-08-15 23:00:00 18.7 2 Este 5 Nordeste 0 -- -- 92
2017-08-15 22:00:00 18.8 0 Calma 6 Este 0 -- -- 92
2017-08-15 21:00:00 18.9 0 Calma 5 Este 0 -- -- 92
2017-08-15 20:00:00 19 3 Este 13 Este 0 -- -- 92
2017-08-15 19:00:00 19.8 5 Este 12 Este 0 -- -- 85
2017-08-15 18:00:00 19.5 3 Este 13 Este 0 -- -- 88
2017-08-15 17:00:00 19.5 5 Este 13 Nordeste 0 -- -- 90
2017-08-15 16:00:00 20.3 4 Este 12 Nordeste 0 -- -- 84
2017-08-15 15:00:00 21.4 6 Este 19 Nordeste 0 -- -- 79
2017-08-15 14:00:00 23.1 6 Nordeste 15 Nordeste 0 -- -- 73
2017-08-15 13:00:00 22.5 4 Este 14 Nordeste 0 -- -- 75
2017-08-15 12:00:00 22.9 5 Este 14 Norte 0 -- -- 73
2017-08-15 11:00:00 21.4 4 Este 13 Este 0 -- -- 81
2017-08-15 10:00:00 20.8 0 Calma 9 Este 0 -- -- 86
2017-08-15 09:00:00 19.8 2 Sudeste 10 Sudoeste 0 -- -- 89
2017-08-15 08:00:00 19.3 3 Oeste 7 Oeste 0 -- -- 90
2017-08-15 07:00:00 19.4 0 Calma 12 Sudoeste 0 -- -- 91
2017-08-15 06:00:00 19.4 3 Oeste 9 Sudoeste 0 -- -- 91
2017-08-15 05:00:00 19.4 4 Sur 10 Sudoeste 0 -- -- 90
2017-08-15 04:00:00 19.6 2 Oeste 8 Norte 0 -- -- 90
2017-08-15 03:00:00 19.9 3 Nordeste 14 Este 0 -- -- 89
2017-08-15 02:00:00 20.3 3 Oeste 7 Norte 0 -- -- 86
2017-08-15 01:00:00 21 3 Este 11 Nordeste 0 -- -- 83
2017-08-15 00:00:00 22 4 Nordeste 13 Norte 0 -- -- 78
2017-08-14 23:00:00 23.3 5 Sudeste 12 Sudoeste 0 -- -- 68
2017-08-14 22:00:00 24.1 5 Sudoeste 12 Sudoeste 0 -- -- 68
2017-08-14 21:00:00 25.8 6 Noroeste 18 Oeste 0 -- -- 54
2017-08-14 20:00:00 26.5 4 Sudoeste 22 Nordeste 0 -- -- 62
2017-08-14 19:00:00 33.1 7 Nordeste 23 Noroeste 0 -- -- 44
2017-08-14 18:00:00 35.8 3 Sudeste 19 Sudeste 0 -- -- 33
2017-08-14 17:00:00 35.8 5 Sudeste 18 Este 0 -- -- 32
2017-08-14 16:00:00 34.9 4 Noroeste 19 Este 0 -- -- 31
2017-08-14 15:00:00 33.9 4 Nordeste 26 Sudeste 0 -- -- 36
2017-08-14 14:00:00 32.3 7 Este 24 Sudeste 0 -- -- 36
2017-08-14 13:00:00 30.9 8 Este 23 Sudoeste 0 -- -- 37
2017-08-14 12:00:00 29.3 6 Sudeste 23 Sudoeste 0 -- -- 40
2017-08-14 11:00:00 26.1 4 Nordeste 22 Este 0 -- -- 60
2017-08-14 10:00:00 19.6 3 Este 9 Norte 0 -- -- 92
2017-08-14 09:00:00 15.4 3 Oeste 5 Sudoeste 0 -- -- 100
2017-08-14 08:00:00 14.2 0 Calma 5 Sudoeste 0 -- -- 99
2017-08-14 07:00:00 14.6 4 Oeste 7 Oeste 0 -- -- 99
2017-08-14 06:00:00 15 2 Oeste 6 Sudoeste 0 -- -- 98
2017-08-14 05:00:00 15.2 2 Sur 4 Sudoeste 0 -- -- 97
2017-08-14 04:00:00 15.4 3 Sudoeste 4 Oeste 0 -- -- 97
2017-08-14 03:00:00 15.7 0 Calma 6 Sudeste 0 -- -- 96
2017-08-14 02:00:00 15.8 0 Calma 6 Oeste 0 -- -- 95
2017-08-14 01:00:00 16.3 0 Calma 4 Sudoeste 0 -- -- 92
2017-08-14 00:00:00 17.1 0 Calma 4 Sudoeste 0 -- -- 90
2017-08-13 23:00:00 18.1 2 Norte 8 Oeste 0 -- -- 87
2017-08-13 22:00:00 19.1 0 Calma 15 Norte 0 -- -- 84
2017-08-13 21:00:00 19.9 4 Sudeste 15 Este 0 -- -- 79
2017-08-13 20:00:00 21.6 5 Este 17 Norte 0 -- -- 73
2017-08-13 19:00:00 23.3 5 Nordeste 17 Norte 0 -- -- 68
2017-08-13 18:00:00 23.6 5 Nordeste 19 Norte 0 -- -- 67
2017-08-13 17:00:00 24 6 Nordeste 16 Este 0 -- -- 65
2017-08-13 16:00:00 24 6 Este 18 Noroeste 0 -- -- 66
2017-08-13 15:00:00 23.8 6 Este 19 Norte 0 -- -- 66
2017-08-13 14:00:00 23.9 5 Este 18 Norte 0 -- -- 66
2017-08-13 13:00:00 24.1 5 Este 15 Nordeste 0 -- -- 64
2017-08-13 12:00:00 23.4 4 Nordeste 10 Este 0 -- -- 66
2017-08-13 11:00:00 21.5 3 Nordeste 9 Norte 0 -- -- 70
2017-08-13 10:00:00 17.7 2 Este 8 Sudeste 0 -- -- 87
2017-08-13 09:00:00 15.9 0 Calma 3 Noroeste 0 -- -- 92
2017-08-13 08:00:00 15.7 0 Calma 2 Sudeste 0 -- -- 93
2017-08-13 07:00:00 15.6 0 Calma 4 Este 0 -- -- 94
2017-08-13 06:00:00 15.5 0 Calma 3 Nordeste 0 -- -- 93
2017-08-13 05:00:00 15.5 0 Calma 4 Sudeste 0 -- -- 92
2017-08-13 04:00:00 15.5 2 Sur 6 Oeste 0 -- -- 92
2017-08-13 03:00:00 15.5 3 Sudeste 5 Este 0 -- -- 91
2017-08-13 02:00:00 15.5 2 Sudoeste 5 Sudoeste 0 -- -- 91
2017-08-13 01:00:00 15.6 0 Calma 4 Sudoeste 0 -- -- 91
2017-08-13 00:00:00 15.8 0 Calma 6 Oeste 0 -- -- 89
2017-08-12 23:00:00 16.5 4 Sudoeste 10 Sudeste 0 -- -- 86
2017-08-12 22:00:00 17.7 4 Este 15 Este 0 -- -- 81
2017-08-12 21:00:00 18.7 4 Este 20 Norte 0 -- -- 77
2017-08-12 20:00:00 20.4 6 Nordeste 17 Nordeste 0 -- -- 71
2017-08-12 19:00:00 22.3 6 Este 18 Norte 0 -- -- 65
2017-08-12 18:00:00 22.9 6 Este 17 Nordeste 0 -- -- 63
2017-08-12 17:00:00 23.3 5 Este 22 Noroeste 0 -- -- 62
2017-08-12 16:00:00 23.2 7 Este 18 Norte 0 -- -- 62
2017-08-12 15:00:00 23.7 5 Este 15 Nordeste 0 -- -- 63
2017-08-12 14:00:00 23.7 5 Nordeste 13 Nordeste 0 -- -- 61
2017-08-12 13:00:00 22.2 3 Nordeste 10 Nordeste 0 -- -- 56
2017-08-12 12:00:00 20.1 4 Nordeste 8 Este 0 -- -- 64
2017-08-12 11:00:00 17.1 3 Norte 8 Noroeste 0 -- -- 79
2017-08-12 10:00:00 13.2 4 Sudeste 9 Sudeste 0 -- -- 95
2017-08-12 09:00:00 10.9 0 Calma 6 Noroeste 0 -- -- 100
2017-08-12 08:00:00 9.8 0 Calma 6 Sudeste 0 -- -- 99
2017-08-12 07:00:00 9.7 0 Calma 4 Sudeste 0 -- -- 98
2017-08-12 06:00:00 10.1 0 Calma 5 Sudeste 0 -- -- 98
2017-08-12 05:00:00 10.4 0 Calma 4 Sudeste 0 -- -- 97
2017-08-12 04:00:00 10.7 0 Calma 3 Sudoeste 0 -- -- 97
2017-08-12 03:00:00 11.1 0 Calma 5 Sudoeste 0 -- -- 96
2017-08-12 02:00:00 11.5 0 Calma 4 Sudeste 0 -- -- 95
2017-08-12 01:00:00 12.1 3 Sudoeste 4 Sudoeste 0 -- -- 93
2017-08-12 00:00:00 12.9 0 Calma 4 Este 0 -- -- 91
2017-08-11 23:00:00 13.9 2 Sudoeste 6 Este 0 -- -- 86
2017-08-11 22:00:00 15.6 0 Calma 10 Este 0 -- -- 79
2017-08-11 21:00:00 17.1 2 Sudeste 12 Norte 0 -- -- 71
2017-08-11 20:00:00 18.8 3 Este 13 Nordeste 0 -- -- 65
2017-08-11 19:00:00 19.2 5 Este 22 Nordeste 0 -- -- 65
2017-08-11 18:00:00 20.2 4 Nordeste 20 Norte 0 -- -- 62
2017-08-11 17:00:00 20.8 6 Nordeste 22 Noroeste 0 -- -- 61
2017-08-11 16:00:00 21.6 7 Norte 24 Norte 0 -- -- 62
2017-08-11 15:00:00 21.7 5 Nordeste 14 Norte 0 -- -- 61
2017-08-11 14:00:00 20.4 5 Este 19 Nordeste 0 -- -- 63
2017-08-11 13:00:00 18.5 5 Noroeste 21 Norte 0 -- -- 65
2017-08-11 12:00:00 17.9 5 Oeste 20 Sudoeste 0 -- -- 70
2017-08-11 11:00:00 17.8 6 Noroeste 15 Oeste 0 -- -- 75
2017-08-11 10:00:00 14.3 2 Oeste 6 Este 0 -- -- 97
2017-08-11 09:00:00 12.1 3 Este 6 Este 0 -- -- 100
2017-08-11 08:00:00 11.4 0 Calma 4 Nordeste 0 -- -- 100
2017-08-11 07:00:00 11 0 Calma 4 Nordeste 0 -- -- 99
2017-08-11 06:00:00 11.5 0 Calma 4 Sudeste 0 -- -- 99
2017-08-11 05:00:00 11.5 0 Calma 6 Sudoeste 0 -- -- 99
2017-08-11 04:00:00 11.7 3 Sudeste 5 Sur 0 -- -- 98
2017-08-11 03:00:00 11.9 2 Sudeste 5 Sur 0 -- -- 98
2017-08-11 02:00:00 12.1 3 Noroeste 8 Sudoeste 0 -- -- 97
2017-08-11 01:00:00 12.2 0 Calma 5 Sudoeste 0 -- -- 97
2017-08-11 00:00:00 12.6 0 Calma 5 Sudoeste 0 -- -- 94
2017-08-10 23:00:00 13.5 0 Calma 7 Oeste 0 -- -- 89
2017-08-10 22:00:00 15 5 Sudoeste 12 Sudoeste 0 -- -- 83
2017-08-10 21:00:00 16.3 7 Oeste 18 Oeste 0 -- -- 81
2017-08-10 20:00:00 17.9 4 Oeste 25 Sudoeste 0 -- -- 75
2017-08-10 19:00:00 17.8 8 Noroeste 20 Sudoeste 0 -- -- 76
2017-08-10 18:00:00 17.2 7 Oeste 23 Oeste 0.2 -- -- 82
2017-08-10 17:00:00 16 5 Oeste 15 Sudoeste 0 -- -- 90
2017-08-10 16:00:00 16.2 8 Sudoeste 23 Oeste 0 -- -- 88
2017-08-10 15:00:00 17.1 10 Oeste 29 Oeste 0.2 -- -- 82
2017-08-10 14:00:00 16.6 8 Oeste 26 Sudoeste 0 -- -- 87
2017-08-10 13:00:00 16.3 8 Oeste 23 Sudoeste 0 -- -- 88
2017-08-10 12:00:00 15.1 6 Oeste 19 Sudoeste 1 -- -- 95
2017-08-10 11:00:00 14.4 8 Sudoeste 16 Oeste 4.8 -- -- 95
2017-08-10 10:00:00 14.9 4 Oeste 15 Sudoeste 0.2 -- -- 91
2017-08-10 09:00:00 13.9 2 Noroeste 11 Oeste 0 -- -- 98
2017-08-10 08:00:00 13.3 2 Sudeste 9 Sudoeste 0 -- -- 98
2017-08-10 07:00:00 13 4 Sudoeste 8 Oeste 0 -- -- 99
2017-08-10 06:00:00 13.1 4 Sudoeste 7 Sudoeste 0 -- -- 99
2017-08-10 05:00:00 13.2 3 Sudeste 9 Sur 1.2 -- -- 98
2017-08-10 04:00:00 13.1 2 Noroeste 5 Sudeste 0.2 -- -- 98
2017-08-10 03:00:00 13.1 0 Calma 7 Noroeste 0 -- -- 97
2017-08-10 02:00:00 13.3 3 Sudeste 8 Sudeste 0.2 -- -- 96
2017-08-10 01:00:00 13.6 2 Nordeste 17 Oeste 0.6 -- -- 94
2017-08-10 00:00:00 13.9 4 Sudeste 7 Este 0.6 -- -- 95
2017-08-09 23:00:00 14.2 3 Sur 8 Sudoeste 0.2 -- -- 94
2017-08-09 22:00:00 14.8 3 Sudeste 15 Sudoeste 0.2 -- -- 88
2017-08-09 21:00:00 15.5 6 Oeste 14 Sudoeste 0 -- -- 84
2017-08-09 20:00:00 16.1 5 Oeste 27 Noroeste 0.2 -- -- 81
2017-08-09 19:00:00 17.7 10 Noroeste 26 Noroeste 0.2 -- -- 68
2017-08-09 18:00:00 19.3 6 Noroeste 19 Noroeste 0 -- -- 63
2017-08-09 17:00:00 18.4 6 Noroeste 28 Noroeste 0.4 -- -- 62
2017-08-09 16:00:00 18.8 8 Noroeste 25 Noroeste 0.2 -- -- 68
2017-08-09 15:00:00 17.1 6 Noroeste 27 Este 1.2 -- -- 74
2017-08-09 14:00:00 18.2 6 Oeste 18 Oeste 0 -- -- 75
2017-08-09 13:00:00 14.9 8 Sudoeste 18 Oeste 0.6 -- -- 89
2017-08-09 12:00:00 16.3 7 Oeste 14 Oeste 0 -- -- 80
2017-08-09 11:00:00 14.4 3 Sudeste 11 Sur 0 -- -- 96
2017-08-09 10:00:00 13.9 3 Nordeste 8 Noroeste 3.2 -- -- 96
2017-08-09 09:00:00 14.1 3 Este 9 Sudoeste 0.4 -- -- 97
2017-08-09 08:00:00 14 0 Calma 5 Sur 0 -- -- 96
2017-08-09 07:00:00 14 0 Calma 5 Sudoeste 0 -- -- 96
2017-08-09 06:00:00 14 0 Calma 9 Sudoeste 0 -- -- 95
2017-08-09 05:00:00 14 6 Sur 17 Sudoeste 0 -- -- 96
2017-08-09 04:00:00 14.1 2 Sur 5 Sudoeste 0 -- -- 96
2017-08-09 03:00:00 14.2 3 Sur 6 Sudeste 0 -- -- 96
2017-08-09 02:00:00 14.4 4 Sudoeste 7 Sudoeste 0 -- -- 95
2017-08-09 01:00:00 14.3 0 Calma 4 Este 0 -- -- 95
2017-08-09 00:00:00 14.4 3 Sudeste 6 Sudeste 0 -- -- 93
2017-08-08 23:00:00 14.5 2 Este 8 Sudeste 0 -- -- 91
2017-08-08 22:00:00 16.1 3 Sur 7 Sudoeste 0 -- -- 85
2017-08-08 21:00:00 17.8 2 Sudoeste 6 Norte 0 -- -- 79
2017-08-08 20:00:00 18.4 2 Sudeste 10 Norte 0 -- -- 74
2017-08-08 19:00:00 18.6 4 Noroeste 11 Noroeste 0 -- -- 70
2017-08-08 18:00:00 20.2 5 Norte 16 Oeste 0 -- -- 66
2017-08-08 17:00:00 18 7 Oeste 18 Sudoeste 0 -- -- 76
2017-08-08 16:00:00 16.4 9 Sudoeste 23 Oeste 0.2 -- -- 85
2017-08-08 15:00:00 17.5 5 Oeste 18 Oeste 0.6 -- -- 81
2017-08-08 14:00:00 17.5 5 Sudoeste 26 Oeste 0.2 -- -- 83
2017-08-08 13:00:00 18.9 7 Oeste 18 Oeste 0 -- -- 72
2017-08-08 12:00:00 17.6 7 Oeste 21 Sudoeste 0 -- -- 81
2017-08-08 11:00:00 16.9 7 Oeste 19 Sudoeste 0 -- -- 84
2017-08-08 10:00:00 16.2 5 Noroeste 13 Sudeste 0 -- -- 89
2017-08-08 09:00:00 15.1 2 Sudeste 8 Sudoeste 0 -- -- 94
2017-08-08 08:00:00 14.8 3 Oeste 8 Oeste 0 -- -- 94
2017-08-08 07:00:00 15 2 Sudoeste 12 Sudoeste 0 -- -- 88
2017-08-08 06:00:00 15.5 5 Oeste 12 Sudoeste 0 -- -- 87
2017-08-08 05:00:00 15.8 6 Sudoeste 18 Sudoeste 0 -- -- 89
2017-08-08 04:00:00 16.1 8 Oeste 20 Sudoeste 0 -- -- 92
2017-08-08 03:00:00 15.8 9 Sudoeste 22 Oeste 0.4 -- -- 95
2017-08-08 02:00:00 16.5 11 Sudoeste 22 Sudoeste 0.2 -- -- 93
2017-08-08 01:00:00 17.2 6 Oeste 15 Oeste 0.4 -- -- 94
2017-08-08 00:00:00 17.8 3 Sudoeste 16 Sudoeste 0.8 -- -- 95
2017-08-07 23:00:00 18 8 Sudoeste 16 Sudoeste 0 -- -- 90
2017-08-07 22:00:00 18.5 3 Noroeste 8 Sur 0 -- -- 95
2017-08-07 21:00:00 18.6 4 Sudeste 6 Sudeste 0.4 -- -- 95
2017-08-07 20:00:00 19.1 2 Sur 7 Sudoeste 0.2 -- -- 92
2017-08-07 19:00:00 19.9 4 Nordeste 14 Nordeste 0 -- -- 87
2017-08-07 18:00:00 21 4 Sudeste 14 Este 0 -- -- 78
2017-08-07 17:00:00 22 5 Este 21 Norte 0 -- -- 75
2017-08-07 16:00:00 23.7 6 Este 20 Este 0 -- -- 72
2017-08-07 15:00:00 24.2 7 Este 23 Nordeste 0 -- -- 71
2017-08-07 14:00:00 24.7 6 Este 15 Nordeste 0 -- -- 68
2017-08-07 13:00:00 24.9 5 Este 10 Este 0 -- -- 64
2017-08-07 12:00:00 23 3 Nordeste 8 Sudeste 0 -- -- 66
2017-08-07 11:00:00 20.4 4 Este 8 Este 0 -- -- 76
2017-08-07 10:00:00 18.1 3 Este 5 Este 0 -- -- 86
2017-08-07 09:00:00 16.4 3 Este 6 Oeste 0 -- -- 93
2017-08-07 08:00:00 15.7 0 Calma 5 Oeste 0 -- -- 95
2017-08-07 07:00:00 15.5 0 Calma 3 Sudeste 0 -- -- 94
2017-08-07 06:00:00 15.6 0 Calma 4 Sudeste 0 -- -- 95
2017-08-07 05:00:00 15.4 2 Sudoeste 3 Sudoeste 0 -- -- 93
2017-08-07 04:00:00 15.9 0 Calma 3 Sudoeste 0 -- -- 92
2017-08-07 03:00:00 16.4 0 Calma 5 Sudoeste 0 -- -- 91
2017-08-07 02:00:00 16.9 2 Sudoeste 6 Sur 0 -- -- 89
2017-08-07 01:00:00 17.5 4 Sudoeste 5 Oeste 0 -- -- 85
2017-08-07 00:00:00 18.1 0 Calma 3 Sudoeste 0 -- -- 83
2017-08-06 23:00:00 18.6 0 Calma 5 Sudeste 0 -- -- 78
2017-08-06 22:00:00 18.9 3 Sudeste 7 Este 0 -- -- 77
2017-08-06 21:00:00 19.3 0 Calma 11 Norte 0 -- -- 76
2017-08-06 20:00:00 19.8 3 Nordeste 15 Norte 0 -- -- 72
2017-08-06 19:00:00 20.3 4 Este 12 Nordeste 0 -- -- 70
2017-08-06 18:00:00 21.1 4 Este 15 Norte 0 -- -- 68
2017-08-06 17:00:00 22.1 4 Nordeste 14 Nordeste 0 -- -- 64
2017-08-06 16:00:00 23.2 5 Nordeste 18 Norte 0 -- -- 59
2017-08-06 15:00:00 22.8 5 Nordeste 16 Nordeste 0 -- -- 61
2017-08-06 14:00:00 22.6 5 Nordeste 17 Norte 0 -- -- 62
2017-08-06 13:00:00 21.5 4 Nordeste 14 Nordeste 0 -- -- 65
2017-08-06 12:00:00 21.9 4 Norte 12 Nordeste 0 -- -- 60
2017-08-06 11:00:00 19.6 5 Nordeste 11 Nordeste 0 -- -- 74
2017-08-06 10:00:00 18.9 3 Nordeste 9 Noroeste 0 -- -- 77
2017-08-06 09:00:00 17.4 3 Oeste 8 Sudeste 0 -- -- 80
2017-08-06 08:00:00 16.6 2 Sur 8 Sudeste 0 -- -- 84
2017-08-06 07:00:00 16.7 4 Sur 10 Este 0 -- -- 82
2017-08-06 06:00:00 16.8 0 Calma 14 Este 0 -- -- 83
2017-08-06 05:00:00 16.7 2 Sudeste 10 Sudeste 0 -- -- 86
2017-08-06 04:00:00 16.9 3 Este 9 Nordeste 0 -- -- 84
2017-08-06 03:00:00 16.8 4 Sudeste 9 Este 0 -- -- 90
2017-08-06 02:00:00 16.9 4 Sudeste 12 Sur 0 -- -- 90
2017-08-06 01:00:00 16.8 3 Nordeste 14 Nordeste 0.2 -- -- 95
2017-08-06 00:00:00 16.5 4 Este 9 Nordeste 0.2 -- -- 97
2017-08-05 23:00:00 16.7 2 Sudoeste 12 Este 0.2 -- -- 97
2017-08-05 22:00:00 17.1 2 Oeste 6 Nordeste 0 -- -- 93
2017-08-05 21:00:00 17.6 3 Este 8 Noroeste 0 -- -- 91
2017-08-05 20:00:00 17.9 0 Calma 6 Norte 0 -- -- 90
2017-08-05 19:00:00 17.8 2 Nordeste 11 Este 0 -- -- 92
2017-08-05 18:00:00 18.3 4 Nordeste 13 Sudeste 0 -- -- 89
2017-08-05 17:00:00 18.3 5 Este 16 Nordeste 0 -- -- 93
2017-08-05 16:00:00 18.3 6 Nordeste 23 Este 0.2 -- -- 95
2017-08-05 15:00:00 19.2 4 Este 17 Norte 0.4 -- -- 95
2017-08-05 14:00:00 19.3 6 Este 15 Nordeste 0.2 -- -- 96
2017-08-05 13:00:00 19.1 6 Nordeste 15 Norte 0.2 -- -- 97
2017-08-05 12:00:00 19.3 5 Este 23 Nordeste 0.2 -- -- 96
2017-08-05 11:00:00 19.7 4 Este 18 Nordeste 0.4 -- -- 98
2017-08-05 10:00:00 19.9 5 Este 13 Este 0.2 -- -- 97
2017-08-05 09:00:00 19.8 6 Este 17 Nordeste 1 -- -- 97
2017-08-05 08:00:00 20.2 4 Este 12 Nordeste 0.8 -- -- 98
2017-08-05 07:00:00 20 3 Sudoeste 5 Sudoeste 0.8 -- -- 96
2017-08-05 06:00:00 20.2 2 Este 4 Este 0 -- -- 92
2017-08-05 05:00:00 20.2 0 Calma 8 Sudoeste 0 -- -- 91
2017-08-05 04:00:00 20.1 4 Oeste 7 Oeste 0 -- -- 90
2017-08-05 03:00:00 20.1 0 Calma 4 Este 0 -- -- 90
2017-08-05 02:00:00 20 0 Calma 5 Sudoeste 0 -- -- 89
2017-08-05 01:00:00 20.5 0 Calma 5 Sudoeste 0 -- -- 87
2017-08-05 00:00:00 21.4 0 Calma 6 Sudoeste 0 -- -- 83
2017-08-04 23:00:00 22.5 0 Calma 6 Este 0 -- -- 79
2017-08-04 22:00:00 23.8 3 Este 9 Nordeste 0 -- -- 72
2017-08-04 21:00:00 25.2 3 Nordeste 14 Nordeste 0 -- -- 67
2017-08-04 20:00:00 27.7 4 Nordeste 17 Nordeste 0 -- -- 59
2017-08-04 19:00:00 28.9 5 Nordeste 17 Nordeste 0 -- -- 56
2017-08-04 18:00:00 29.3 6 Este 19 Noroeste 0 -- -- 55
2017-08-04 17:00:00 29.7 6 Nordeste 22 Este 0 -- -- 54
2017-08-04 16:00:00 30.1 4 Este 16 Nordeste 0 -- -- 54
2017-08-04 15:00:00 30.3 5 Nordeste 21 Norte 0 -- -- 55
2017-08-04 14:00:00 30.5 4 Nordeste 15 Nordeste 0 -- -- 55
2017-08-04 13:00:00 28.8 4 Norte 10 Norte 0 -- -- 58
2017-08-04 12:00:00 27.5 3 Norte 11 Noroeste 0 -- -- 63
2017-08-04 11:00:00 24.8 4 Norte 9 Sudeste 0 -- -- 72
2017-08-04 10:00:00 21.7 2 Noroeste 6 Norte 0 -- -- 87
2017-08-04 09:00:00 19.8 3 Nordeste 6 Nordeste 0 -- -- 92
2017-08-04 08:00:00 18.7 3 Este 9 Sudeste 0 -- -- 95
2017-08-04 07:00:00 18.7 2 Sudoeste 4 Sudeste 0 -- -- 95
2017-08-04 06:00:00 19.2 2 Sur 5 Sudeste 0 -- -- 93
2017-08-04 05:00:00 19.9 2 Sur 4 Este 0 -- -- 93
2017-08-04 04:00:00 20.7 0 Calma 4 Norte 0 -- -- 91
2017-08-04 03:00:00 20.8 2 Este 7 Norte 0 -- -- 90
2017-08-04 02:00:00 21 2 Nordeste 5 Este 0 -- -- 89
2017-08-04 01:00:00 21.1 6 Este 12 Este 0 -- -- 88
2017-08-04 00:00:00 21.2 2 Nordeste 10 Este 0 -- -- 87
2017-08-03 23:00:00 21.5 4 Este 12 Este 0 -- -- 85
2017-08-03 22:00:00 22 3 Este 12 Sur 0 -- -- 84
2017-08-03 21:00:00 22.6 5 Nordeste 18 Este 0 -- -- 80
2017-08-03 20:00:00 24.1 6 Este 15 Nordeste 0 -- -- 72
2017-08-03 19:00:00 26.9 7 Nordeste 17 Nordeste 0 -- -- 62
2017-08-03 18:00:00 27 5 Este 18 Norte 0 -- -- 60
2017-08-03 17:00:00 26.9 5 Este 23 Este 0 -- -- 63
2017-08-03 16:00:00 26.8 7 Este 17 Nordeste 0 -- -- 64
2017-08-03 15:00:00 27.1 7 Este 20 Nordeste 0 -- -- 65
2017-08-03 14:00:00 27.9 4 Este 14 Nordeste 0 -- -- 64
2017-08-03 13:00:00 27.4 3 Nordeste 12 Noroeste 0 -- -- 66
2017-08-03 12:00:00 26.2 3 Nordeste 9 Este 0 -- -- 69
2017-08-03 11:00:00 24.3 4 Norte 8 Norte 0 -- -- 72
2017-08-03 10:00:00 21.8 3 Nordeste 6 Nordeste 0 -- -- 82
2017-08-03 09:00:00 20.2 0 Calma 5 Norte 0 -- -- 87
2017-08-03 08:00:00 19.7 0 Calma 4 Sudoeste 0 -- -- 88
2017-08-03 07:00:00 19.6 3 Sudoeste 4 Oeste 0 -- -- 87
2017-08-03 06:00:00 19.7 0 Calma 5 Este 0 -- -- 86
2017-08-03 05:00:00 19.7 0 Calma 6 Oeste 0 -- -- 85
2017-08-03 04:00:00 19.9 0 Calma 6 Noroeste 0 -- -- 84
2017-08-03 03:00:00 19.8 2 Nordeste 10 Norte 0 -- -- 83
2017-08-03 02:00:00 20.1 2 Sudoeste 4 Sudeste 0 -- -- 83
2017-08-03 01:00:00 20.3 0 Calma 3 Sudoeste 0 -- -- 82
2017-08-03 00:00:00 20.4 0 Calma 4 Norte 0 -- -- 80
2017-08-02 23:00:00 20.7 0 Calma 5 Norte 0 -- -- 79
2017-08-02 22:00:00 20.8 2 Nordeste 10 Nordeste 0 -- -- 77
2017-08-02 21:00:00 21.4 4 Este 15 Nordeste 0 -- -- 75
2017-08-02 20:00:00 22 5 Este 17 Nordeste 0 -- -- 74
2017-08-02 19:00:00 24 7 Este 19 Nordeste 0 -- -- 70
2017-08-02 18:00:00 23.9 6 Este 21 Norte 0 -- -- 71
2017-08-02 17:00:00 24.6 9 Este 20 Norte 0 -- -- 69
2017-08-02 16:00:00 26 7 Este 20 Nordeste 0 -- -- 67
2017-08-02 15:00:00 26.8 6 Nordeste 19 Norte 0 -- -- 66
2017-08-02 14:00:00 26.2 4 Nordeste 13 Norte 0 -- -- 69
2017-08-02 13:00:00 25.7 5 Nordeste 14 Norte 0 -- -- 68
2017-08-02 12:00:00 23.7 4 Norte 9 Sudoeste 0 -- -- 73
2017-08-02 11:00:00 21.7 3 Noroeste 8 Oeste 0 -- -- 77
2017-08-02 10:00:00 18.7 3 Nordeste 7 Norte 0 -- -- 89
2017-08-02 09:00:00 16.3 0 Calma 5 Sudeste 0 -- -- 97
2017-08-02 08:00:00 15.9 3 Este 5 Sudeste 0 -- -- 97
2017-08-02 07:00:00 16 2 Sur 4 Sudoeste 0 -- -- 96
2017-08-02 06:00:00 16.5 2 Sur 4 Sudeste 0 -- -- 94
2017-08-02 05:00:00 17.2 3 Sudoeste 5 Sudoeste 0 -- -- 93
2017-08-02 04:00:00 17.6 0 Calma 5 Sudeste 0 -- -- 92
2017-08-02 03:00:00 17.7 0 Calma 4 Sudeste 0 -- -- 90
2017-08-02 02:00:00 17.8 3 Sudoeste 4 Oeste 0 -- -- 89
2017-08-02 01:00:00 17.7 0 Calma 3 Sudoeste 0 -- -- 89
2017-08-02 00:00:00 18.4 0 Calma 10 Sudeste 0 -- -- 86
2017-08-01 23:00:00 18.9 5 Este 9 Este 0 -- -- 84
2017-08-01 22:00:00 19.5 3 Este 10 Este 0 -- -- 82
2017-08-01 21:00:00 20.1 3 Nordeste 13 Nordeste 0 -- -- 80
2017-08-01 20:00:00 21.4 4 Norte 13 Nordeste 0 -- -- 76
2017-08-01 19:00:00 21.2 4 Nordeste 12 Norte 0 -- -- 77
2017-08-01 18:00:00 21.5 4 Este 15 Norte 0 -- -- 78
2017-08-01 17:00:00 22.4 4 Nordeste 15 Norte 0 -- -- 74
2017-08-01 16:00:00 22.4 4 Nordeste 18 Norte 0 -- -- 74
2017-08-01 15:00:00 22.5 4 Nordeste 13 Nordeste 0 -- -- 72
2017-08-01 14:00:00 22.4 4 Nordeste 14 Noroeste 0 -- -- 72
2017-08-01 13:00:00 21.4 3 Este 9 Nordeste 0 -- -- 80
2017-08-01 12:00:00 19.8 3 Oeste 6 Oeste 0 -- -- 87
2017-08-01 11:00:00 18.7 2 Oeste 10 Sudoeste 0 -- -- 94
2017-08-01 10:00:00 17.7 0 Calma 5 Noroeste 0.6 -- -- 99
2017-08-01 09:00:00 17.3 0 Calma 4 Sudeste 0.8 -- -- 99
2017-08-01 08:00:00 17.2 0 Calma 4 Este 0.2 -- -- 98
2017-08-01 07:00:00 17.2 3 Sudoeste 8 Sudeste 0.2 -- -- 97
2017-08-01 06:00:00 17.4 2 Sudoeste 5 Sudeste 0 -- -- 95
2017-08-01 05:00:00 17.6 2 Sudoeste 4 Sudoeste 0 -- -- 93
2017-08-01 04:00:00 17.7 0 Calma 4 Sudeste 0 -- -- 92
2017-08-01 03:00:00 17.8 2 Sudeste 8 Sudoeste 0 -- -- 91
2017-08-01 02:00:00 18 0 Calma 4 Este 0 -- -- 90
2017-08-01 01:00:00 18.5 3 Este 9 Este 0 -- -- 86
2017-08-01 00:00:00 18.5 3 Sudeste 9 Nordeste 0 -- -- 87
2017-07-31 23:00:00 18.5 2 Sur 9 Sur 0 -- -- 87
2017-07-31 22:00:00 18.5 4 Este 12 Noroeste 0 -- -- 87
2017-07-31 21:00:00 18.4 3 Sudeste 8 Este 0 -- -- 89
2017-07-31 20:00:00 19.1 3 Norte 11 Oeste 0 -- -- 83
2017-07-31 19:00:00 19.2 4 Este 13 Nordeste 0 -- -- 85
2017-07-31 18:00:00 20.5 4 Este 12 Este 0 -- -- 78
2017-07-31 17:00:00 21.1 3 Nordeste 10 Este 0 -- -- 75
2017-07-31 16:00:00 21.1 3 Nordeste 10 Norte 0 -- -- 76
2017-07-31 15:00:00 20.9 4 Este 10 Norte 0 -- -- 75
2017-07-31 14:00:00 20.4 4 Nordeste 12 Norte 0 -- -- 78
2017-07-31 13:00:00 20 3 Nordeste 10 Nordeste 0 -- -- 80
2017-07-31 12:00:00 19.6 3 Norte 10 Norte 0 -- -- 83
2017-07-31 11:00:00 18.9 4 Sudoeste 8 Sudoeste 0 -- -- 87
2017-07-31 10:00:00 18.4 4 Sudoeste 8 Sudoeste 0 -- -- 93
2017-07-31 09:00:00 17.6 0 Calma 6 Sudeste 0 -- -- 95
2017-07-31 08:00:00 17.2 2 Sudoeste 6 Sur 0 -- -- 95
2017-07-31 07:00:00 17.2 0 Calma 8 Oeste 0 -- -- 96
2017-07-31 06:00:00 17.4 3 Noroeste 6 Sudoeste 0 -- -- 95
2017-07-31 05:00:00 17.4 3 Oeste 5 Sudeste 0 -- -- 95
2017-07-31 04:00:00 17.6 3 Sudoeste 11 Oeste 0 -- -- 93
2017-07-31 03:00:00 17.8 3 Sudoeste 6 Este 0.2 -- -- 92
2017-07-31 02:00:00 18.4 4 Sudeste 7 Sudeste 0 -- -- 86
2017-07-31 01:00:00 18.5 0 Calma 3 Nordeste 0 -- -- 86
2017-07-31 00:00:00 18.7 2 Sudeste 4 Sudeste 0 -- -- 83
2017-07-30 23:00:00 18.9 2 Sudeste 6 Este 0 -- -- 81
2017-07-30 22:00:00 19 2 Sudeste 8 Sur 0 -- -- 80
2017-07-30 21:00:00 19.2 2 Sudoeste 15 Nordeste 0 -- -- 80
2017-07-30 20:00:00 19.8 5 Este 15 Norte 0 -- -- 77
2017-07-30 19:00:00 20.1 6 Norte 22 Noroeste 0 -- -- 74
2017-07-30 18:00:00 20.7 4 Este 15 Norte 0 -- -- 81
2017-07-30 17:00:00 21.3 6 Nordeste 18 Nordeste 0 -- -- 76
2017-07-30 16:00:00 22.5 5 Este 16 Este 0 -- -- 79
2017-07-30 15:00:00 23.1 6 Este 16 Norte 0 -- -- 74
2017-07-30 14:00:00 23.8 6 Este 19 Este 0 -- -- 73
2017-07-30 13:00:00 23.8 5 Este 18 Nordeste 0 -- -- 75
2017-07-30 12:00:00 22.7 5 Nordeste 16 Norte 0 -- -- 80
2017-07-30 11:00:00 22.8 5 Este 13 Norte 0 -- -- 80
2017-07-30 10:00:00 19.3 3 Noroeste 6 Noroeste 0 -- -- 79
2017-07-30 09:00:00 17.4 0 Calma 8 Oeste 0 -- -- 85
2017-07-30 08:00:00 16.2 2 Sudeste 6 Oeste 0 -- -- 89
2017-07-30 07:00:00 15.7 2 Sudoeste 5 Este 0 -- -- 90
2017-07-30 06:00:00 15.7 0 Calma 4 Nordeste 0 -- -- 89
2017-07-30 05:00:00 16 0 Calma 4 Este 0 -- -- 87
2017-07-30 04:00:00 16.6 2 Oeste 5 Sudoeste 0 -- -- 85
2017-07-30 03:00:00 16.8 0 Calma 4 Oeste 0 -- -- 84
2017-07-30 02:00:00 17.3 0 Calma 5 Este 0 -- -- 80
2017-07-30 01:00:00 17.9 3 Oeste 9 Sudeste 0 -- -- 78
2017-07-30 00:00:00 18.9 6 Sudeste 11 Sudoeste 0 -- -- 73
2017-07-29 23:00:00 19.9 2 Sudeste 7 Este 0 -- -- 68
2017-07-29 22:00:00 22.7 3 Oeste 9 Sudeste 0 -- -- 56
2017-07-29 21:00:00 25 3 Este 10 Este 0 -- -- 45
2017-07-29 20:00:00 26.5 3 Este 14 Norte 0 -- -- 44
2017-07-29 19:00:00 27.6 4 Sudeste 13 Nordeste 0 -- -- 39
2017-07-29 18:00:00 27.5 5 Este 14 Nordeste 0 -- -- 40
2017-07-29 17:00:00 27 6 Este 20 Norte 0 -- -- 44
2017-07-29 16:00:00 26.9 6 Este 20 Norte 0 -- -- 57
2017-07-29 15:00:00 27.3 6 Este 17 Norte 0 -- -- 62
2017-07-29 14:00:00 28.4 4 Nordeste 13 Norte 0 -- -- 62
2017-07-29 13:00:00 26.6 4 Noroeste 9 Noroeste 0 -- -- 55
2017-07-29 12:00:00 24.9 2 Norte 7 Norte 0 -- -- 64
2017-07-29 11:00:00 22.6 3 Noroeste 6 Norte 0 -- -- 76
2017-07-29 10:00:00 19.9 2 Norte 5 Noroeste 0 -- -- 89
2017-07-29 09:00:00 17.5 2 Norte 9 Sudeste 0 -- -- 98
2017-07-29 08:00:00 17 5 Sur 11 Sudoeste 0 -- -- 98
2017-07-29 07:00:00 16.6 0 Calma 6 Oeste 0 -- -- 97
2017-07-29 06:00:00 16.9 0 Calma 7 Sudeste 0 -- -- 97
2017-07-29 05:00:00 17.2 0 Calma 6 Sudoeste 0 -- -- 96
2017-07-29 04:00:00 17.2 0 Calma 5 Sudeste 0 -- -- 96
2017-07-29 03:00:00 17.5 3 Sudeste 6 Sudeste 0 -- -- 95
2017-07-29 02:00:00 17.8 2 Sudoeste 5 Sudoeste 0 -- -- 93
2017-07-29 01:00:00 18.3 0 Calma 4 Sudeste 0 -- -- 92
2017-07-29 00:00:00 18.5 0 Calma 4 Sudoeste 0 -- -- 91
2017-07-28 23:00:00 19.2 2 Noroeste 9 Nordeste 0 -- -- 87
2017-07-28 22:00:00 19.9 4 Este 15 Nordeste 0 -- -- 84
2017-07-28 21:00:00 20.8 5 Este 16 Nordeste 0 -- -- 80
2017-07-28 20:00:00 22.9 4 Este 15 Nordeste 0 -- -- 74
2017-07-28 19:00:00 23.8 5 Este 17 Este 0 -- -- 72
2017-07-28 18:00:00 24.5 6 Nordeste 21 Norte 0 -- -- 72
2017-07-28 17:00:00 24.2 6 Nordeste 18 Norte 0 -- -- 73
2017-07-28 16:00:00 23.9 6 Este 18 Norte 0 -- -- 76
2017-07-28 15:00:00 23.8 6 Este 20 Norte 0 -- -- 75
2017-07-28 14:00:00 24 5 Sudeste 13 Nordeste 0 -- -- 75
2017-07-28 13:00:00 21.6 4 Este 11 Nordeste 0 -- -- 82
2017-07-28 12:00:00 21.4 3 Este 11 Norte 0 -- -- 83
2017-07-28 11:00:00 20 3 Nordeste 8 Nordeste 0 -- -- 88
2017-07-28 10:00:00 19.7 2 Nordeste 8 Norte 0 -- -- 87
2017-07-28 09:00:00 18.9 3 Norte 9 Nordeste 0 -- -- 92
2017-07-28 08:00:00 18.5 4 Este 9 Este 0 -- -- 95
2017-07-28 07:00:00 18.6 4 Este 8 Nordeste 0 -- -- 95
2017-07-28 06:00:00 18.6 2 Nordeste 9 Nordeste 0 -- -- 95
2017-07-28 05:00:00 18.7 5 Este 11 Este 0 -- -- 95
2017-07-28 04:00:00 18.9 6 Este 15 Nordeste 0 -- -- 95
2017-07-28 03:00:00 19.8 5 Este 12 Este 0 -- -- 92
2017-07-28 02:00:00 20.3 4 Este 9 Este 0 -- -- 90
2017-07-28 01:00:00 20.3 3 Este 12 Este 0 -- -- 90
2017-07-28 00:00:00 20.6 3 Este 9 Norte 0 -- -- 89
2017-07-27 23:00:00 20.8 0 Calma 12 Nordeste 0 -- -- 87
2017-07-27 22:00:00 21.1 4 Este 12 Sudeste 0 -- -- 85
2017-07-27 21:00:00 21.8 4 Este 14 Este 0 -- -- 81
2017-07-27 20:00:00 22.6 5 Este 19 Sudeste 0 -- -- 77
2017-07-27 19:00:00 24.9 6 Este 23 Norte 0 -- -- 68
2017-07-27 18:00:00 25.9 7 Este 19 Este 0 -- -- 64
2017-07-27 17:00:00 26.4 6 Este 18 Nordeste 0 -- -- 60
2017-07-27 16:00:00 26.4 7 Este 22 Norte 0 -- -- 57
2017-07-27 15:00:00 27.7 6 Este 17 Nordeste 0 -- -- 54
2017-07-27 14:00:00 28.3 5 Nordeste 15 Nordeste 0 -- -- 52
2017-07-27 13:00:00 26.7 4 Noroeste 10 Norte 0 -- -- 53
2017-07-27 12:00:00 24.2 3 Noroeste 6 Noroeste 0 -- -- 60
2017-07-27 11:00:00 21.2 2 Norte 5 Norte 0 -- -- 74
2017-07-27 10:00:00 17.5 2 Nordeste 4 Norte 0 -- -- 93
2017-07-27 09:00:00 14.6 0 Calma 4 Este 0 -- -- 100
2017-07-27 08:00:00 14.1 0 Calma 3 Oeste 0 -- -- 100
2017-07-27 07:00:00 14 2 Oeste 5 Sudeste 0 -- -- 99
2017-07-27 06:00:00 14.3 3 Sudeste 5 Este 0 -- -- 98
2017-07-27 05:00:00 14.8 0 Calma 4 Sudoeste 0 -- -- 98
2017-07-27 04:00:00 14.9 0 Calma 4 Este 0 -- -- 98
2017-07-27 03:00:00 15 0 Calma 3 Sur 0 -- -- 96
2017-07-27 02:00:00 15.4 2 Oeste 3 Sudoeste 0 -- -- 95
2017-07-27 01:00:00 15.9 0 Calma 4 Sudoeste 0 -- -- 94
2017-07-27 00:00:00 16.5 0 Calma 4 Sudoeste 0 -- -- 92
2017-07-26 23:00:00 17.5 2 Oeste 11 Noroeste 0 -- -- 88
2017-07-26 22:00:00 18.7 3 Este 11 Este 0 -- -- 83
2017-07-26 21:00:00 20.1 4 Sudeste 14 Noroeste 0 -- -- 77
2017-07-26 20:00:00 21.6 5 Este 17 Norte 0 -- -- 72
2017-07-26 19:00:00 23.3 5 Este 19 Norte 0 -- -- 67
2017-07-26 18:00:00 24 5 Este 17 Este 0 -- -- 66
2017-07-26 17:00:00 24.1 5 Este 17 Noroeste 0 -- -- 66
2017-07-26 16:00:00 24.7 5 Sudeste 18 Norte 0 -- -- 64
2017-07-26 15:00:00 25 5 Nordeste 16 Nordeste 0 -- -- 64
2017-07-26 14:00:00 25.1 4 Nordeste 13 Norte 0 -- -- 62
2017-07-26 13:00:00 23.1 5 Noroeste 10 Norte 0 -- -- 65
2017-07-26 12:00:00 21.5 3 Este 8 Este 0 -- -- 68
2017-07-26 11:00:00 19.2 3 Este 6 Noroeste 0 -- -- 77
2017-07-26 10:00:00 16.3 0 Calma 4 Noroeste 0 -- -- 92
2017-07-26 09:00:00 14.6 2 Este 6 Este 0 -- -- 95
2017-07-26 08:00:00 13.4 0 Calma 5 Sudeste 0 -- -- 98
2017-07-26 07:00:00 13.1 3 Sur 6 Oeste 0 -- -- 98
2017-07-26 06:00:00 13.6 0 Calma 4 Sudoeste 0 -- -- 97
2017-07-26 05:00:00 14.3 0 Calma 4 Sudoeste 0 -- -- 96
2017-07-26 04:00:00 14.6 2 Sudoeste 4 Sudoeste 0 -- -- 94
2017-07-26 03:00:00 15.4 0 Calma 3 Sudoeste 0 -- -- 93
2017-07-26 02:00:00 15.6 0 Calma 4 Oeste 0 -- -- 93
2017-07-26 01:00:00 15.6 0 Calma 4 Sudeste 0 -- -- 92
2017-07-26 00:00:00 15.8 0 Calma 7 Oeste 0 -- -- 91
2017-07-25 23:00:00 16.2 0 Calma 6 Sudoeste 0 -- -- 88
2017-07-25 22:00:00 17 2 Sudoeste 7 Sudoeste 0 -- -- 83
2017-07-25 21:00:00 17.9 4 Noroeste 12 Norte 0 -- -- 78
2017-07-25 20:00:00 18.8 3 Norte 14 Noroeste 0 -- -- 78
2017-07-25 19:00:00 19 4 Norte 16 Norte 0 -- -- 76
2017-07-25 18:00:00 18.7 4 Sur 15 Norte 0 -- -- 80
2017-07-25 17:00:00 18.5 4 Este 12 Sudoeste 0 -- -- 82
2017-07-25 16:00:00 18.1 5 Oeste 13 Sudoeste 0 -- -- 84
2017-07-25 15:00:00 17.3 6 Sudoeste 16 Oeste 0.4 -- -- 88
2017-07-25 14:00:00 17.7 8 Sudoeste 19 Sudoeste 0 -- -- 85
2017-07-25 13:00:00 18.9 5 Oeste 19 Oeste 0 -- -- 76
2017-07-25 12:00:00 18.9 3 Noroeste 9 Sudoeste 0 -- -- 74
2017-07-25 11:00:00 17.7 3 Sur 9 Sudoeste 0 -- -- 83
2017-07-25 10:00:00 16.6 4 Sudoeste 13 Sudoeste 0 -- -- 91
2017-07-25 09:00:00 15.4 6 Sudoeste 14 Oeste 0 -- -- 95
2017-07-25 08:00:00 14.9 2 Nordeste 8 Sur 0 -- -- 97
2017-07-25 07:00:00 14.9 4 Sudoeste 9 Sudoeste 0 -- -- 97
2017-07-25 06:00:00 15.1 4 Sur 8 Oeste 0 -- -- 97
2017-07-25 05:00:00 15.2 2 Sudoeste 6 Noroeste 0 -- -- 96
2017-07-25 04:00:00 15.7 2 Sur 9 Sudoeste 0.4 -- -- 97
2017-07-25 03:00:00 15.8 2 Sudoeste 7 Sudoeste 0 -- -- 95
2017-07-25 02:00:00 16 0 Calma 12 Sudoeste 0.2 -- -- 97
2017-07-25 01:00:00 16.1 3 Sudeste 11 Sudoeste 0 -- -- 96
2017-07-25 00:00:00 16.2 6 Sudoeste 11 Oeste 0.2 -- -- 93
2017-07-24 23:00:00 16.5 4 Oeste 13 Sudoeste 0 -- -- 94
2017-07-24 22:00:00 16.7 6 Oeste 12 Sudoeste 0.2 -- -- 94
2017-07-24 21:00:00 17.1 4 Noroeste 9 Noroeste 0.6 -- -- 95
2017-07-24 20:00:00 17.2 2 Noroeste 9 Noroeste 1 -- -- 95
2017-07-24 19:00:00 17.7 3 Sudeste 16 Noroeste 0.6 -- -- 94
2017-07-24 18:00:00 18.7 6 Norte 22 Noroeste 0.2 -- -- 93
2017-07-24 17:00:00 18.7 5 Este 19 Noroeste 0.6 -- -- 92
2017-07-24 16:00:00 20.1 4 Nordeste 12 Noroeste 1.4 -- -- 87
2017-07-24 15:00:00 20.1 6 Norte 15 Norte 0.8 -- -- 85
2017-07-24 14:00:00 20.7 8 Oeste 23 Oeste 0 -- -- 77
2017-07-24 13:00:00 19.3 4 Noroeste 16 Noroeste 0.2 -- -- 88
2017-07-24 12:00:00 19.9 5 Noroeste 16 Oeste 0 -- -- 84
2017-07-24 11:00:00 19 4 Noroeste 15 Oeste 0.4 -- -- 91
2017-07-24 10:00:00 17.9 6 Oeste 14 Oeste 0.2 -- -- 92
2017-07-24 09:00:00 17.8 7 Oeste 15 Sudoeste 0 -- -- 91
2017-07-24 08:00:00 17.6 3 Oeste 12 Oeste 0.4 -- -- 95
2017-07-24 07:00:00 17.8 3 Oeste 7 Oeste 0.2 -- -- 96
2017-07-24 06:00:00 17.8 5 Sur 17 Sudoeste 0.4 -- -- 96
2017-07-24 05:00:00 18 2 Sur 13 Sur 0 -- -- 94
2017-07-24 04:00:00 18.3 7 Sur 13 Sur 0 -- -- 90
2017-07-24 03:00:00 18.2 3 Sur 6 Sur 0.2 -- -- 90
2017-07-24 02:00:00 18.6 0 Calma 6 Oeste 0 -- -- 86
2017-07-24 01:00:00 18.7 3 Oeste 9 Sudeste 0 -- -- 84
2017-07-24 00:00:00 18.8 0 Calma 8 Sudoeste 0 -- -- 82
2017-07-23 23:00:00 18.7 0 Calma 6 Sudeste 0 -- -- 83
2017-07-23 22:00:00 18.8 0 Calma 7 Sudeste 0 -- -- 80
2017-07-23 21:00:00 19.7 2 Sudoeste 13 Nordeste 0 -- -- 75
2017-07-23 20:00:00 21 5 Este 15 Nordeste 0 -- -- 71
2017-07-23 19:00:00 21.9 5 Nordeste 20 Noroeste 0 -- -- 69
2017-07-23 18:00:00 22.2 6 Este 17 Este 0 -- -- 69
2017-07-23 17:00:00 23.4 5 Nordeste 17 Nordeste 0 -- -- 65
2017-07-23 16:00:00 23.5 4 Nordeste 15 Nordeste 0 -- -- 60
2017-07-23 15:00:00 23 3 Nordeste 12 Nordeste 0 -- -- 63
2017-07-23 14:00:00 22.4 4 Nordeste 17 Nordeste 0 -- -- 64
2017-07-23 13:00:00 22.1 4 Nordeste 16 Norte 0 -- -- 64
2017-07-23 12:00:00 21.4 4 Nordeste 11 Norte 0 -- -- 64
2017-07-23 11:00:00 20 3 Norte 5 Noroeste 0 -- -- 70
2017-07-23 10:00:00 18.4 2 Norte 7 Nordeste 0 -- -- 81
2017-07-23 09:00:00 16.3 2 Nordeste 5 Este 0 -- -- 92
2017-07-23 08:00:00 15.6 0 Calma 3 Sudeste 0 -- -- 95
2017-07-23 07:00:00 15.6 0 Calma 4 Sudeste 0 -- -- 95
2017-07-23 06:00:00 15.8 2 Sur 4 Sudeste 0 -- -- 94
2017-07-23 05:00:00 16 0 Calma 5 Sudeste 0 -- -- 94
2017-07-23 04:00:00 16.2 0 Calma 4 Sudeste 0 -- -- 94
2017-07-23 03:00:00 16.3 2 Sudeste 3 Sudeste 0 -- -- 93
2017-07-23 02:00:00 16.4 0 Calma 4 Sudeste 0 -- -- 92
2017-07-23 01:00:00 16.5 0 Calma 6 Este 0 -- -- 93
2017-07-23 00:00:00 16.7 3 Sudeste 7 Sudeste 0 -- -- 91
2017-07-22 23:00:00 16.8 2 Sudeste 6 Este 0 -- -- 90
2017-07-22 22:00:00 17.2 3 Sur 7 Nordeste 0 -- -- 91
2017-07-22 21:00:00 18.1 3 Nordeste 12 Norte 0 -- -- 84
2017-07-22 20:00:00 19.1 4 Sudeste 13 Nordeste 0 -- -- 82
2017-07-22 19:00:00 19.3 4 Este 15 Norte 0 -- -- 82
2017-07-22 18:00:00 20.2 5 Este 17 Norte 0 -- -- 79
2017-07-22 17:00:00 22.3 5 Este 19 Norte 0 -- -- 71
2017-07-22 16:00:00 24.2 6 Nordeste 19 Nordeste 0 -- -- 58
2017-07-22 15:00:00 23.2 5 Nordeste 18 Nordeste 0 -- -- 59
2017-07-22 14:00:00 24 5 Este 16 Norte 0 -- -- 57
2017-07-22 13:00:00 24.9 4 Nordeste 12 Nordeste 0 -- -- 58
2017-07-22 12:00:00 22.4 3 Norte 7 Norte 0 -- -- 63
2017-07-22 11:00:00 20 3 Este 9 Este 0 -- -- 71
2017-07-22 10:00:00 16.4 3 Este 6 Este 0 -- -- 88
2017-07-22 09:00:00 14.7 0 Calma 3 Este 0 -- -- 97
2017-07-22 08:00:00 13.9 0 Calma 3 Sudeste 0 -- -- 98
2017-07-22 07:00:00 13.7 0 Calma 4 Sudeste 0 -- -- 99
2017-07-22 06:00:00 13.5 2 Este 4 Sudeste 0 -- -- 99
2017-07-22 05:00:00 13.6 3 Sudoeste 6 Sudoeste 0 -- -- 99
2017-07-22 04:00:00 13.8 0 Calma 3 Sudeste 0 -- -- 98
2017-07-22 03:00:00 14 2 Noroeste 4 Sudoeste 0 -- -- 98
2017-07-22 02:00:00 13.9 0 Calma 4 Sudoeste 0 -- -- 97
2017-07-22 01:00:00 14.4 0 Calma 4 Oeste 0 -- -- 96
2017-07-22 00:00:00 14.9 2 Sur 4 Este 0 -- -- 95